createdAt,value
2016-06-12T00:00:28.639Z,35.04
2016-06-12T00:01:28.673Z,35.33
2016-06-12T00:02:28.707Z,35.42
2016-06-12T00:03:28.726Z,35.33
2016-06-12T00:04:29.510Z,35.33
2016-06-12T00:05:28.779Z,35.24
2016-06-12T00:06:28.814Z,35.52
2016-06-12T00:07:28.833Z,35.33
2016-06-12T00:08:28.892Z,35.52
2016-06-12T00:09:28.965Z,35.33
2016-06-12T00:10:29.022Z,35.33
2016-06-12T00:11:29.094Z,35.81
2016-06-12T00:12:29.151Z,35.91
2016-06-12T00:13:29.191Z,35.62
2016-06-12T00:14:29.239Z,35.62
2016-06-12T00:15:29.288Z,35.52
2016-06-12T00:16:29.319Z,35.52
2016-06-12T00:17:29.368Z,35.31
2016-06-12T00:18:29.394Z,36.1
2016-06-12T00:19:30.059Z,36
2016-06-12T00:20:29.863Z,36
2016-06-12T00:21:29.496Z,36.27
2016-06-12T00:22:29.520Z,36.18
2016-06-12T00:23:29.557Z,36.18
2016-06-12T00:24:29.578Z,36.37
2016-06-12T00:25:29.614Z,36.56
2016-06-12T00:26:29.650Z,36.47
2016-06-12T00:27:29.687Z,36.66
2016-06-12T00:28:29.691Z,36.66
2016-06-12T00:29:29.726Z,36.56
2016-06-12T00:30:29.745Z,36.76
2016-06-12T00:31:31.217Z,36.76
2016-06-12T00:32:29.814Z,36.66
2016-06-12T00:33:29.943Z,36.66
2016-06-12T00:34:29.865Z,36.76
2016-06-12T00:35:29.930Z,36.85
2016-06-12T00:36:29.918Z,36.76
2016-06-12T00:37:29.937Z,36.56
2016-06-12T00:38:29.972Z,36.56
2016-06-12T00:39:29.990Z,36.76
2016-06-12T00:40:30.026Z,36.47
2016-06-12T00:41:30.059Z,36.47
2016-06-12T00:42:30.078Z,36.85
2016-06-12T00:43:30.096Z,36.85
2016-06-12T00:44:30.131Z,36.95
2016-06-12T00:45:30.150Z,36.85
2016-06-12T00:46:30.184Z,36.18
2016-06-12T00:47:30.218Z,36.76
2016-06-12T00:48:30.237Z,36.66
2016-06-12T00:49:30.271Z,36.85
2016-06-12T00:50:30.713Z,36.83
2016-06-12T00:51:30.309Z,37.02
2016-06-12T00:52:30.344Z,36.54
2016-06-12T00:53:30.377Z,36.83
2016-06-12T00:54:30.412Z,37.02
2016-06-12T00:55:30.431Z,37.12
2016-06-12T00:56:30.449Z,37.02
2016-06-12T00:57:30.468Z,37.02
2016-06-12T00:58:30.502Z,36.93
2016-06-12T00:59:30.521Z,37.12
2016-06-12T01:00:30.555Z,37.32
2016-06-12T01:01:30.433Z,37.22
2016-06-12T01:02:30.608Z,37.32
2016-06-12T01:03:30.627Z,37.22
2016-06-12T01:04:30.662Z,37.7
2016-06-12T01:05:30.695Z,37.51
2016-06-12T01:06:30.714Z,37.51
2016-06-12T01:07:30.764Z,37.51
2016-06-12T01:08:30.768Z,37.51
2016-06-12T01:09:30.801Z,37.51
2016-06-12T01:10:30.821Z,37.89
2016-06-12T01:11:30.839Z,37.7
2016-06-12T01:12:30.873Z,37.7
2016-06-12T01:13:30.908Z,37.6
2016-06-12T01:14:31.005Z,37.59
2016-06-12T01:15:30.961Z,37.68
2016-06-12T01:16:30.980Z,37.79
2016-06-12T01:17:31.014Z,37.89
2016-06-12T01:18:31.033Z,37.89
2016-06-12T01:19:31.066Z,37.77
2016-06-12T01:20:31.101Z,37.68
2016-06-12T01:21:31.104Z,37.59
2016-06-12T01:22:31.138Z,37.41
2016-06-12T01:23:31.173Z,37.39
2016-06-12T01:24:31.207Z,38.07
2016-06-12T01:25:31.210Z,38.16
2016-06-12T01:26:31.245Z,37.59
2016-06-12T01:27:31.263Z,38.16
2016-06-12T01:28:31.298Z,38.16
2016-06-12T01:29:31.316Z,38.16
2016-06-12T01:30:31.350Z,38.16
2016-06-12T01:31:31.370Z,38.07
2016-06-12T01:32:31.403Z,38.07
2016-06-12T01:33:31.422Z,38.16
2016-06-12T01:34:31.457Z,38.35
2016-06-12T01:35:32.241Z,38.54
2016-06-12T01:36:31.510Z,38.54
2016-06-12T01:37:31.529Z,38.26
2016-06-12T01:38:31.563Z,38.35
2016-06-12T01:39:31.582Z,38.35
2016-06-12T01:40:31.616Z,38.35
2016-06-12T01:41:31.635Z,38.35
2016-06-12T01:42:31.653Z,38.16
2016-06-12T01:43:31.687Z,38.64
2016-06-12T01:44:31.722Z,38.54
2016-06-12T01:45:31.741Z,38.64
2016-06-12T01:46:31.775Z,38.35
2016-06-12T01:47:31.793Z,38.64
2016-06-12T01:48:31.813Z,38.54
2016-06-12T01:49:31.847Z,38.53
2016-06-12T01:50:31.866Z,38.54
2016-06-12T01:51:31.915Z,38.53
2016-06-12T01:52:31.918Z,38.43
2016-06-12T01:53:31.953Z,38.53
2016-06-12T01:54:31.971Z,38.53
2016-06-12T01:55:31.850Z,38.72
2016-06-12T01:56:32.024Z,38.74
2016-06-12T01:57:32.043Z,38.72
2016-06-12T01:58:32.078Z,38.62
2016-06-12T01:59:32.111Z,38.81
2016-06-12T02:00:32.131Z,38.62
2016-06-12T02:01:32.165Z,38.81
2016-06-12T02:02:32.184Z,38.72
2016-06-12T02:03:32.218Z,38.91
2016-06-12T02:04:32.237Z,38.81
2016-06-12T02:05:32.271Z,39.11
2016-06-12T02:06:32.290Z,39.01
2016-06-12T02:07:32.308Z,39.01
2016-06-12T02:08:32.358Z,39.01
2016-06-12T02:09:32.362Z,38.72
2016-06-12T02:10:32.396Z,38.91
2016-06-12T02:11:32.415Z,38.91
2016-06-12T02:12:32.434Z,39.29
2016-06-12T02:13:32.468Z,39.28
2016-06-12T02:14:32.502Z,39.29
2016-06-12T02:15:32.521Z,39.29
2016-06-12T02:16:32.539Z,39.18
2016-06-12T02:17:32.574Z,39.2
2016-06-12T02:18:32.592Z,39.28
2016-06-12T02:19:32.626Z,39.49
2016-06-12T02:20:33.067Z,39.29
2016-06-12T02:21:32.789Z,39.49
2016-06-12T02:22:32.699Z,39.37
2016-06-12T02:23:32.732Z,39.47
2016-06-12T02:24:32.813Z,39.49
2016-06-12T02:25:32.769Z,39.47
2016-06-12T02:26:32.805Z,39.68
2016-06-12T02:27:32.823Z,39.47
2016-06-12T02:28:32.857Z,39.95
2016-06-12T02:29:32.876Z,39.85
2016-06-12T02:30:32.910Z,39.76
2016-06-12T02:31:32.929Z,39.76
2016-06-12T02:32:32.948Z,39.66
2016-06-12T02:33:32.983Z,39.66
2016-06-12T02:34:32.844Z,39.76
2016-06-12T02:35:33.035Z,39.76
2016-06-12T02:36:33.053Z,39.76
2016-06-12T02:37:33.072Z,39.76
2016-06-12T02:38:33.107Z,39.66
2016-06-12T02:39:33.142Z,39.66
2016-06-12T02:40:33.160Z,39.66
2016-06-12T02:41:33.178Z,39.95
2016-06-12T02:42:33.213Z,40.05
2016-06-12T02:43:33.232Z,39.76
2016-06-12T02:44:33.266Z,40.14
2016-06-12T02:45:33.285Z,40.05
2016-06-12T02:46:33.303Z,40.23
2016-06-12T02:47:33.337Z,40.14
2016-06-12T02:48:33.356Z,40.05
2016-06-12T02:49:33.390Z,40.05
2016-06-12T02:50:34.393Z,40.05
2016-06-12T02:51:33.537Z,39.95
2016-06-12T02:52:33.557Z,40.14
2016-06-12T02:53:33.574Z,40.33
2016-06-12T02:54:33.608Z,40.43
2016-06-12T02:55:33.597Z,40.52
2016-06-12T02:56:33.631Z,40.5
2016-06-12T02:57:33.680Z,40.31
2016-06-12T02:58:33.825Z,40.31
2016-06-12T02:59:33.828Z,40.31
2016-06-12T03:00:33.752Z,40.43
2016-06-12T03:01:33.693Z,40.31
2016-06-12T03:02:33.712Z,40.5
2016-06-12T03:03:33.793Z,40.5
2016-06-12T03:04:33.764Z,40.41
2016-06-12T03:05:34.034Z,40.6
2016-06-12T03:06:33.833Z,40.6
2016-06-12T03:07:33.836Z,40.7
2016-06-12T03:08:33.871Z,40.89
2016-06-12T03:09:33.890Z,40.7
2016-06-12T03:10:33.923Z,40.79
2016-06-12T03:11:33.943Z,40.79
2016-06-12T03:12:33.977Z,40.79
2016-06-12T03:13:33.996Z,40.79
2016-06-12T03:14:34.014Z,40.79
2016-06-12T03:15:34.048Z,40.99
2016-06-12T03:16:34.084Z,41.08
2016-06-12T03:17:34.101Z,40.99
2016-06-12T03:18:34.120Z,41.08
2016-06-12T03:19:34.139Z,41.17
2016-06-12T03:20:35.438Z,41.17
2016-06-12T03:21:34.208Z,40.99
2016-06-12T03:22:34.226Z,41.17
2016-06-12T03:23:34.244Z,41.08
2016-06-12T03:24:34.264Z,40.99
2016-06-12T03:25:34.314Z,41.17
2016-06-12T03:26:34.317Z,41.17
2016-06-12T03:27:34.351Z,41.08
2016-06-12T03:28:34.370Z,41.08
2016-06-12T03:29:34.404Z,40.99
2016-06-12T03:30:34.424Z,41.08
2016-06-12T03:31:34.441Z,41.27
2016-06-12T03:32:34.475Z,41.17
2016-06-12T03:33:34.495Z,41.08
2016-06-12T03:34:34.373Z,41.08
2016-06-12T03:35:34.407Z,41.08
2016-06-12T03:36:34.581Z,41.17
2016-06-12T03:37:34.601Z,40.99
2016-06-12T03:38:34.635Z,40.99
2016-06-12T03:39:34.654Z,41.37
2016-06-12T03:40:34.672Z,41.75
2016-06-12T03:41:34.691Z,41.75
2016-06-12T03:42:34.726Z,41.56
2016-06-12T03:43:34.759Z,41.66
2016-06-12T03:44:34.778Z,41.85
2016-06-12T03:45:34.797Z,41.75
2016-06-12T03:46:34.815Z,41.56
2016-06-12T03:47:34.851Z,41.75
2016-06-12T03:48:34.869Z,41.73
2016-06-12T03:49:34.902Z,41.93
2016-06-12T03:50:36.438Z,41.94
2016-06-12T03:51:34.956Z,41.85
2016-06-12T03:52:34.819Z,41.94
2016-06-12T03:53:34.994Z,41.66
2016-06-12T03:54:35.012Z,41.94
2016-06-12T03:55:35.047Z,42.13
2016-06-12T03:56:35.096Z,42.02
2016-06-12T03:57:35.099Z,41.93
2016-06-12T03:58:35.118Z,41.93
2016-06-12T03:59:35.152Z,41.85
2016-06-12T04:00:35.172Z,42.23
2016-06-12T04:01:35.206Z,42.23
2016-06-12T04:02:35.224Z,42.02
2016-06-12T04:03:35.242Z,42.02
2016-06-12T04:04:35.278Z,42.33
2016-06-12T04:05:35.656Z,42.43
2016-06-12T04:06:36.080Z,42.43
2016-06-12T04:07:35.349Z,42.33
2016-06-12T04:08:35.368Z,42.4
2016-06-12T04:09:35.402Z,42.3
2016-06-12T04:10:35.421Z,42.69
2016-06-12T04:11:35.455Z,42.9
2016-06-12T04:12:35.473Z,42.23
2016-06-12T04:13:35.492Z,42.61
2016-06-12T04:14:35.527Z,42.5
2016-06-12T04:15:35.545Z,42.69
2016-06-12T04:16:35.580Z,42.88
2016-06-12T04:17:35.599Z,43.1
2016-06-12T04:18:35.617Z,42.88
2016-06-12T04:19:35.635Z,43.29
2016-06-12T04:20:35.670Z,43.46
2016-06-12T04:21:35.720Z,43.38
2016-06-12T04:22:35.723Z,42.98
2016-06-12T04:23:35.742Z,43.17
2016-06-12T04:24:35.620Z,43.46
2016-06-12T04:25:35.796Z,43.17
2016-06-12T04:26:35.813Z,43.19
2016-06-12T04:27:35.848Z,43.19
2016-06-12T04:28:35.710Z,43.19
2016-06-12T04:29:35.901Z,43.27
2016-06-12T04:30:35.920Z,43.65
2016-06-12T04:31:35.939Z,43.74
2016-06-12T04:32:35.972Z,43.65
2016-06-12T04:33:35.992Z,43.74
2016-06-12T04:34:36.026Z,43.67
2016-06-12T04:35:36.060Z,43.96
2016-06-12T04:36:36.579Z,43.57
2016-06-12T04:37:36.097Z,43.87
2016-06-12T04:38:36.117Z,43.67
2016-06-12T04:39:36.150Z,43.67
2016-06-12T04:40:36.169Z,43.67
2016-06-12T04:41:36.204Z,44.15
2016-06-12T04:42:36.207Z,43.57
2016-06-12T04:43:36.241Z,44.15
2016-06-12T04:44:36.276Z,44.15
2016-06-12T04:45:36.294Z,43.96
2016-06-12T04:46:36.313Z,44.06
2016-06-12T04:47:36.347Z,44.06
2016-06-12T04:48:36.366Z,43.96
2016-06-12T04:49:36.384Z,44.15
2016-06-12T04:50:36.419Z,44.06
2016-06-12T04:51:37.031Z,44.06
2016-06-12T04:52:36.457Z,43.48
2016-06-12T04:53:36.490Z,43.67
2016-06-12T04:54:36.509Z,43.48
2016-06-12T04:55:36.544Z,43.67
2016-06-12T04:56:36.563Z,43.77
2016-06-12T04:57:36.596Z,44.15
2016-06-12T04:58:36.615Z,44.06
2016-06-12T04:59:36.634Z,43.98
2016-06-12T05:00:36.668Z,44.17
2016-06-12T05:01:36.687Z,44.08
2016-06-12T05:02:36.706Z,43.7
2016-06-12T05:03:36.740Z,43.7
2016-06-12T05:04:36.774Z,43.5
2016-06-12T05:05:36.793Z,43.5
2016-06-12T05:06:36.812Z,43.6
2016-06-12T05:07:36.847Z,43.6
2016-06-12T05:08:36.864Z,44.08
2016-06-12T05:09:36.883Z,43.5
2016-06-12T05:10:36.902Z,43.7
2016-06-12T05:11:36.937Z,43.88
2016-06-12T05:12:36.954Z,43.5
2016-06-12T05:13:36.990Z,44.08
2016-06-12T05:14:37.008Z,43.7
2016-06-12T05:15:37.042Z,43.79
2016-06-12T05:16:37.061Z,43.6
2016-06-12T05:17:37.095Z,43.79
2016-06-12T05:18:37.114Z,43.71
2016-06-12T05:19:37.149Z,43.7
2016-06-12T05:20:37.167Z,43.91
2016-06-12T05:21:37.529Z,43.6
2016-06-12T05:22:37.205Z,43.71
2016-06-12T05:23:37.239Z,43.31
2016-06-12T05:24:37.257Z,43.81
2016-06-12T05:25:37.292Z,43.62
2016-06-12T05:26:37.310Z,43.23
2016-06-12T05:27:37.329Z,43.23
2016-06-12T05:28:37.364Z,43.43
2016-06-12T05:29:37.398Z,43.62
2016-06-12T05:30:37.417Z,43.43
2016-06-12T05:31:37.436Z,43.52
2016-06-12T05:32:37.469Z,43.71
2016-06-12T05:33:37.489Z,44
2016-06-12T05:34:37.507Z,44.1
2016-06-12T05:35:37.542Z,44.29
2016-06-12T05:36:37.403Z,44.41
2016-06-12T05:37:37.595Z,44.51
2016-06-12T05:38:37.613Z,44.38
2016-06-12T05:39:37.632Z,44.7
2016-06-12T05:40:37.651Z,44.6
2016-06-12T05:41:37.685Z,44.87
2016-06-12T05:42:37.719Z,45.08
2016-06-12T05:43:37.738Z,45.37
2016-06-12T05:44:37.756Z,45.18
2016-06-12T05:45:37.791Z,45.18
2016-06-12T05:46:37.809Z,45.37
2016-06-12T05:47:37.844Z,45.08
2016-06-12T05:48:37.862Z,44.89
2016-06-12T05:49:37.896Z,44.99
2016-06-12T05:50:37.915Z,44.89
2016-06-12T05:51:38.153Z,44.89
2016-06-12T05:52:37.969Z,44.79
2016-06-12T05:53:37.988Z,44.89
2016-06-12T05:54:38.022Z,44.89
2016-06-12T05:55:38.165Z,44.7
2016-06-12T05:56:38.168Z,44.51
2016-06-12T05:57:38.093Z,44.51
2016-06-12T05:58:38.222Z,44.24
2016-06-12T05:59:38.224Z,44.34
2016-06-12T06:00:38.227Z,44.05
2016-06-12T06:01:38.231Z,44.24
2016-06-12T06:02:38.249Z,44.24
2016-06-12T06:03:38.315Z,44.43
2016-06-12T06:04:38.317Z,44.24
2016-06-12T06:05:38.321Z,44.43
2016-06-12T06:06:38.433Z,44.53
2016-06-12T06:07:38.437Z,44.05
2016-06-12T06:08:38.455Z,43.85
2016-06-12T06:09:38.349Z,44.34
2016-06-12T06:10:38.508Z,44.43
2016-06-12T06:11:38.511Z,44.34
2016-06-12T06:12:38.483Z,44.14
2016-06-12T06:13:38.549Z,44.17
2016-06-12T06:14:38.536Z,43.66
2016-06-12T06:15:38.556Z,44.26
2016-06-12T06:16:38.589Z,43.59
2016-06-12T06:17:38.607Z,43.88
2016-06-12T06:18:38.627Z,43.97
2016-06-12T06:19:38.661Z,43.78
2016-06-12T06:20:38.680Z,43.88
2016-06-12T06:21:38.854Z,43.78
2016-06-12T06:22:38.733Z,43.78
2016-06-12T06:23:38.751Z,43.68
2016-06-12T06:24:38.786Z,43.97
2016-06-12T06:25:38.804Z,43.78
2016-06-12T06:26:38.855Z,43.49
2016-06-12T06:27:38.857Z,43.3
2016-06-12T06:28:38.891Z,43.59
2016-06-12T06:29:38.927Z,43.59
2016-06-12T06:30:38.945Z,42.91
2016-06-12T06:31:38.964Z,43.4
2016-06-12T06:32:38.982Z,42.91
2016-06-12T06:33:39.017Z,43.03
2016-06-12T06:34:39.051Z,43.4
2016-06-12T06:35:39.069Z,43.2
2016-06-12T06:36:39.182Z,42.84
2016-06-12T06:37:39.123Z,43.23
2016-06-12T06:38:39.141Z,43.03
2016-06-12T06:39:39.175Z,42.74
2016-06-12T06:40:39.054Z,42.74
2016-06-12T06:41:39.229Z,43.03
2016-06-12T06:42:39.247Z,43.03
2016-06-12T06:43:39.267Z,42.55
2016-06-12T06:44:39.300Z,42.46
2016-06-12T06:45:39.335Z,42.26
2016-06-12T06:46:39.354Z,42.36
2016-06-12T06:47:39.388Z,42.09
2016-06-12T06:48:39.407Z,42.26
2016-06-12T06:49:39.440Z,42.19
2016-06-12T06:50:39.459Z,42.19
2016-06-12T06:51:39.494Z,42.09
2016-06-12T06:52:39.512Z,41.89
2016-06-12T06:53:39.375Z,41.99
2016-06-12T06:54:39.565Z,41.71
2016-06-12T06:55:39.584Z,41.89
2016-06-12T06:56:39.618Z,41.03
2016-06-12T06:57:39.638Z,41.13
2016-06-12T06:58:39.688Z,41.13
2016-06-12T06:59:39.690Z,41.13
2016-06-12T07:00:39.725Z,41.22
2016-06-12T07:01:39.743Z,41.22
2016-06-12T07:02:39.778Z,41.13
2016-06-12T07:03:39.812Z,41.05
2016-06-12T07:04:39.831Z,41.05
2016-06-12T07:05:39.849Z,41.05
2016-06-12T07:06:39.883Z,40.86
2016-06-12T07:07:39.903Z,41.14
2016-06-12T07:08:39.937Z,40.95
2016-06-12T07:09:39.956Z,40.95
2016-06-12T07:10:39.989Z,40.95
2016-06-12T07:11:40.009Z,40.57
2016-06-12T07:12:40.152Z,40.47
2016-06-12T07:13:40.171Z,40.57
2016-06-12T07:14:40.189Z,40.57
2016-06-12T07:15:40.130Z,40.47
2016-06-12T07:16:40.258Z,40.47
2016-06-12T07:17:40.261Z,40.57
2016-06-12T07:18:40.295Z,40.3
2016-06-12T07:19:40.314Z,40.2
2016-06-12T07:20:40.317Z,40.2
2016-06-12T07:21:40.336Z,40.01
2016-06-12T07:22:40.339Z,40.01
2016-06-12T07:23:40.343Z,39.72
2016-06-12T07:24:40.455Z,39.72
2016-06-12T07:25:40.473Z,39.62
2016-06-12T07:26:40.508Z,39.72
2016-06-12T07:27:40.510Z,39.53
2016-06-12T07:28:40.560Z,39.53
2016-06-12T07:29:40.501Z,39.45
2016-06-12T07:30:40.520Z,39.45
2016-06-12T07:31:40.554Z,38.97
2016-06-12T07:32:40.573Z,38.87
2016-06-12T07:33:40.607Z,38.68
2016-06-12T07:34:40.735Z,38.87
2016-06-12T07:35:40.754Z,38.68
2016-06-12T07:36:41.225Z,38.68
2016-06-12T07:37:40.728Z,38.2
2016-06-12T07:38:40.732Z,38.58
2016-06-12T07:39:40.767Z,38.01
2016-06-12T07:40:40.863Z,37.71
2016-06-12T07:41:40.835Z,37.52
2016-06-12T07:42:40.963Z,37.81
2016-06-12T07:43:40.935Z,37.83
2016-06-12T07:44:40.969Z,37.73
2016-06-12T07:45:41.003Z,37.73
2016-06-12T07:46:41.022Z,37.54
2016-06-12T07:47:41.197Z,38.02
2016-06-12T07:48:41.106Z,37.73
2016-06-12T07:49:41.109Z,37.93
2016-06-12T07:50:41.253Z,37.73
2016-06-12T07:51:41.256Z,37.73
2016-06-12T07:52:41.259Z,37.35
2016-06-12T07:53:41.278Z,37.15
2016-06-12T07:54:41.281Z,36.77
2016-06-12T07:55:41.300Z,36.96
2016-06-12T07:56:41.287Z,36.79
2016-06-12T07:57:41.306Z,37.08
2016-06-12T07:58:41.372Z,36.98
2016-06-12T07:59:41.390Z,36.69
2016-06-12T08:00:41.424Z,36.69
2016-06-12T08:01:41.365Z,36.3
2016-06-12T08:02:41.400Z,36.4
2016-06-12T08:03:41.418Z,36.21
2016-06-12T08:04:41.453Z,35.82
2016-06-12T08:05:41.471Z,35.63
2016-06-12T08:06:41.536Z,35.74
2016-06-12T08:07:41.540Z,35.74
2016-06-12T08:08:41.573Z,36.01
2016-06-12T08:09:41.593Z,35.94
2016-06-12T08:10:41.627Z,35.74
2016-06-12T08:11:41.646Z,35.36
2016-06-12T08:12:41.680Z,35.36
2016-06-12T08:13:41.699Z,35.45
2016-06-12T08:14:41.733Z,35.55
2016-06-12T08:15:41.752Z,35.36
2016-06-12T08:16:41.786Z,35.36
2016-06-12T08:17:41.820Z,35.26
2016-06-12T08:18:41.839Z,35.37
2016-06-12T08:19:41.874Z,35.26
2016-06-12T08:20:41.892Z,35.18
2016-06-12T08:21:41.771Z,35.08
2016-06-12T08:22:41.977Z,34.89
2016-06-12T08:23:41.995Z,34.79
2016-06-12T08:24:42.014Z,34.79
2016-06-12T08:25:42.033Z,34.6
2016-06-12T08:26:42.068Z,34.31
2016-06-12T08:27:42.101Z,34.42
2016-06-12T08:28:42.120Z,34.13
2016-06-12T08:29:42.155Z,34.13
2016-06-12T08:30:42.188Z,34.62
2016-06-12T08:31:42.208Z,33.84
2016-06-12T08:32:42.241Z,34.42
2016-06-12T08:33:42.260Z,34.13
2016-06-12T08:34:42.295Z,34.05
2016-06-12T08:35:42.328Z,34.13
2016-06-12T08:36:42.348Z,34.25
2016-06-12T08:37:42.523Z,33.95
2016-06-12T08:38:42.416Z,33.86
2016-06-12T08:39:42.279Z,33.95
2016-06-12T08:40:42.485Z,33.95
2016-06-12T08:41:42.504Z,33.67
2016-06-12T08:42:42.554Z,33.67
2016-06-12T08:43:42.573Z,33.76
2016-06-12T08:44:42.575Z,33.59
2016-06-12T08:45:42.610Z,33.49
2016-06-12T08:46:42.644Z,33.39
2016-06-12T08:47:42.662Z,33.69
2016-06-12T08:48:42.697Z,33.2
2016-06-12T08:49:42.732Z,33.2
2016-06-12T08:50:42.594Z,33.39
2016-06-12T08:51:43.581Z,33.12
2016-06-12T08:52:42.913Z,33.1
2016-06-12T08:53:42.931Z,32.92
2016-06-12T08:54:42.935Z,33.31
2016-06-12T08:55:42.969Z,33.51
2016-06-12T08:56:42.940Z,32.92
2016-06-12T08:57:42.960Z,32.54
2016-06-12T08:58:42.838Z,32.44
2016-06-12T08:59:43.013Z,32.34
2016-06-12T09:00:43.046Z,32.54
2016-06-12T09:01:43.066Z,32.73
2016-06-12T09:02:43.115Z,32.17
2016-06-12T09:03:43.228Z,32.44
2016-06-12T09:04:43.168Z,32.56
2016-06-12T09:05:43.203Z,32.44
2016-06-12T09:06:43.502Z,31.96
2016-06-12T09:07:43.396Z,32.26
2016-06-12T09:08:43.478Z,32.17
2016-06-12T09:09:43.308Z,32.17
2016-06-12T09:10:43.344Z,31.78
2016-06-12T09:11:43.362Z,31.87
2016-06-12T09:12:43.411Z,31.87
2016-06-12T09:13:43.445Z,32.07
2016-06-12T09:14:43.450Z,32.07
2016-06-12T09:15:43.525Z,31.97
2016-06-12T09:16:43.584Z,32.18
2016-06-12T09:17:43.675Z,31.99
2016-06-12T09:18:43.750Z,32.09
2016-06-12T09:19:43.809Z,31.79
2016-06-12T09:20:43.858Z,31.31
2016-06-12T09:21:44.000Z,31.41
2016-06-12T09:22:43.956Z,31.79
2016-06-12T09:23:43.974Z,31.5
2016-06-12T09:24:44.022Z,31.41
2016-06-12T09:25:44.061Z,31.42
2016-06-12T09:26:44.100Z,31.23
2016-06-12T09:27:44.140Z,30.94
2016-06-12T09:28:44.180Z,31.04
2016-06-12T09:29:44.204Z,30.84
2016-06-12T09:30:44.240Z,30.76
2016-06-12T09:31:44.259Z,31.05
2016-06-12T09:32:44.297Z,30.85
2016-06-12T09:33:44.332Z,30.85
2016-06-12T09:34:44.368Z,30.95
2016-06-12T09:35:44.403Z,30.57
2016-06-12T09:36:44.501Z,30.48
2016-06-12T09:37:44.724Z,30
2016-06-12T09:38:44.493Z,30.09
2016-06-12T09:39:44.513Z,29.71
2016-06-12T09:40:44.563Z,29.71
2016-06-12T09:41:44.441Z,29.14
2016-06-12T09:42:44.492Z,29.52
2016-06-12T09:43:44.651Z,28.85
2016-06-12T09:44:44.671Z,29.33
2016-06-12T09:45:44.658Z,29.14
2016-06-12T09:46:44.739Z,29.24
2016-06-12T09:47:44.758Z,29.43
2016-06-12T09:48:44.886Z,28.96
2016-06-12T09:49:44.826Z,28.96
2016-06-12T09:50:44.845Z,28.86
2016-06-12T09:51:44.880Z,28.66
2016-06-12T09:52:45.523Z,28.88
2016-06-12T09:53:44.948Z,28.88
2016-06-12T09:54:44.967Z,28.68
2016-06-12T09:55:44.845Z,28.78
2016-06-12T09:56:44.879Z,28.49
2016-06-12T09:57:45.069Z,28.4
2016-06-12T09:58:45.104Z,28.19
2016-06-12T09:59:45.123Z,28.11
2016-06-12T10:00:45.157Z,27.72
2016-06-12T10:01:45.192Z,27.72
2016-06-12T10:02:45.226Z,27.73
2016-06-12T10:03:45.260Z,27.64
2016-06-12T10:04:45.279Z,27.54
2016-06-12T10:05:45.313Z,27.54
2016-06-12T10:06:45.348Z,27.64
2016-06-12T10:07:46.022Z,27.36
2016-06-12T10:08:45.416Z,27.45
2016-06-12T10:09:45.435Z,27.16
2016-06-12T10:10:45.470Z,27.55
2016-06-12T10:11:45.534Z,27.45
2016-06-12T10:12:45.538Z,27.28
2016-06-12T10:13:45.557Z,27.37
2016-06-12T10:14:45.607Z,26.98
2016-06-12T10:15:45.625Z,26.89
2016-06-12T10:16:45.659Z,26.5
2016-06-12T10:17:45.694Z,26.3
2016-06-12T10:18:45.728Z,26.5
2016-06-12T10:19:45.763Z,26.5
2016-06-12T10:20:45.781Z,26.5
2016-06-12T10:21:45.815Z,26.41
2016-06-12T10:22:45.850Z,26.02
2016-06-12T10:23:45.885Z,26.02
2016-06-12T10:24:45.919Z,25.63
2016-06-12T10:25:45.937Z,25.84
2016-06-12T10:26:45.972Z,25.64
2016-06-12T10:27:46.022Z,25.45
2016-06-12T10:28:46.040Z,25.35
2016-06-12T10:29:46.074Z,25.54
2016-06-12T10:30:46.109Z,25.25
2016-06-12T10:31:46.128Z,25.54
2016-06-12T10:32:46.163Z,25.36
2016-06-12T10:33:46.197Z,24.98
2016-06-12T10:34:46.230Z,24.98
2016-06-12T10:35:46.265Z,24.98
2016-06-12T10:36:46.300Z,25.07
2016-06-12T10:37:46.724Z,24.68
2016-06-12T10:38:46.352Z,24.6
2016-06-12T10:39:46.387Z,24.3
2016-06-12T10:40:46.421Z,24.01
2016-06-12T10:41:46.533Z,24.21
2016-06-12T10:42:46.505Z,24.3
2016-06-12T10:43:46.524Z,23.82
2016-06-12T10:44:46.558Z,23.82
2016-06-12T10:45:46.592Z,23.73
2016-06-12T10:46:46.611Z,23.63
2016-06-12T10:47:46.661Z,23.54
2016-06-12T10:48:46.680Z,23.63
2016-06-12T10:49:46.730Z,23.83
2016-06-12T10:50:46.748Z,23.63
2016-06-12T10:51:46.783Z,23.73
2016-06-12T10:52:46.661Z,22.95
2016-06-12T10:53:46.851Z,22.96
2016-06-12T10:54:46.886Z,23.05
2016-06-12T10:55:46.904Z,23.05
2016-06-12T10:56:46.939Z,23.25
2016-06-12T10:57:46.973Z,23.05
2016-06-12T10:58:47.024Z,23.07
2016-06-12T10:59:47.041Z,22.66
2016-06-12T11:00:47.076Z,22.58
2016-06-12T11:01:47.110Z,22.67
2016-06-12T11:02:47.145Z,22.28
2016-06-12T11:03:47.179Z,22.28
2016-06-12T11:04:47.213Z,22.3
2016-06-12T11:05:47.248Z,22.1
2016-06-12T11:06:47.282Z,22.2
2016-06-12T11:07:47.550Z,21.92
2016-06-12T11:08:47.351Z,21.62
2016-06-12T11:09:47.385Z,21.03
2016-06-12T11:10:47.419Z,21.03
2016-06-12T11:11:47.438Z,21.23
2016-06-12T11:12:47.488Z,21.13
2016-06-12T11:13:47.366Z,20.84
2016-06-12T11:14:47.542Z,20.65
2016-06-12T11:15:47.576Z,20.95
2016-06-12T11:16:47.626Z,20.75
2016-06-12T11:17:47.644Z,20.46
2016-06-12T11:18:47.678Z,20.46
2016-06-12T11:19:47.760Z,19.87
2016-06-12T11:20:47.747Z,19.96
2016-06-12T11:21:47.781Z,20.17
2016-06-12T11:22:47.894Z,19.77
2016-06-12T11:23:47.850Z,19.59
2016-06-12T11:24:47.884Z,19.88
2016-06-12T11:25:47.918Z,19.98
2016-06-12T11:26:47.953Z,19.57
2016-06-12T11:27:47.987Z,19.87
2016-06-12T11:28:48.021Z,19.67
2016-06-12T11:29:48.056Z,19.87
2016-06-12T11:30:48.105Z,19.57
2016-06-12T11:31:48.124Z,19.77
2016-06-12T11:32:48.159Z,19.77
2016-06-12T11:33:48.193Z,19.77
2016-06-12T11:34:48.228Z,19.96
2016-06-12T11:35:48.262Z,19.77
2016-06-12T11:36:48.296Z,19.87
2016-06-12T11:37:48.331Z,19.48
2016-06-12T11:38:48.366Z,19.57
2016-06-12T11:39:48.400Z,19.77
2016-06-12T11:40:48.434Z,19.87
2016-06-12T11:41:48.467Z,19.87
2016-06-12T11:42:48.502Z,19.67
2016-06-12T11:43:48.536Z,20.17
2016-06-12T11:44:48.570Z,19.96
2016-06-12T11:45:48.637Z,20.15
2016-06-12T11:46:48.671Z,20.35
2016-06-12T11:47:48.674Z,20.35
2016-06-12T11:48:48.724Z,20.25
2016-06-12T11:49:48.742Z,20.06
2016-06-12T11:50:48.980Z,20.35
2016-06-12T11:51:48.811Z,20.45
2016-06-12T11:52:49.204Z,20.25
2016-06-12T11:53:48.896Z,20.54
2016-06-12T11:54:48.914Z,20.93
2016-06-12T11:55:48.949Z,20.73
2016-06-12T11:56:48.983Z,21.03
2016-06-12T11:57:49.016Z,20.93
2016-06-12T11:58:49.051Z,20.93
2016-06-12T11:59:49.086Z,20.73
2016-06-12T12:00:49.120Z,21.12
2016-06-12T12:01:49.154Z,21.41
2016-06-12T12:02:49.189Z,21.03
2016-06-12T12:03:49.254Z,21.11
2016-06-12T12:04:49.351Z,21.31
2016-06-12T12:05:49.291Z,21.11
2016-06-12T12:06:49.326Z,21.01
2016-06-12T12:07:50.141Z,21.69
2016-06-12T12:08:49.394Z,21.41
2016-06-12T12:09:49.428Z,22.08
2016-06-12T12:10:49.464Z,21.69
2016-06-12T12:11:49.497Z,21.88
2016-06-12T12:12:49.531Z,21.88
2016-06-12T12:13:49.566Z,21.59
2016-06-12T12:14:49.601Z,22.08
2016-06-12T12:15:49.635Z,22.17
2016-06-12T12:16:49.686Z,22.36
2016-06-12T12:17:49.703Z,22.27
2016-06-12T12:18:49.738Z,22.36
2016-06-12T12:19:49.773Z,22.27
2016-06-12T12:20:49.823Z,22.36
2016-06-12T12:21:49.841Z,22.07
2016-06-12T12:22:50.047Z,22.07
2016-06-12T12:23:49.910Z,22.17
2016-06-12T12:24:49.943Z,22.36
2016-06-12T12:25:49.978Z,22.17
2016-06-12T12:26:50.028Z,22.36
2016-06-12T12:27:50.061Z,22.07
2016-06-12T12:28:50.081Z,22.06
2016-06-12T12:29:50.115Z,22.64
2016-06-12T12:30:50.150Z,22.64
2016-06-12T12:31:50.185Z,22.55
2016-06-12T12:32:50.234Z,22.45
2016-06-12T12:33:50.253Z,22.55
2016-06-12T12:34:50.303Z,22.35
2016-06-12T12:35:50.321Z,22.45
2016-06-12T12:36:50.371Z,22.35
2016-06-12T12:37:50.467Z,22.74
2016-06-12T12:38:50.470Z,22.55
2016-06-12T12:39:50.459Z,23.02
2016-06-12T12:40:50.493Z,22.92
2016-06-12T12:41:50.620Z,23.02
2016-06-12T12:42:50.562Z,22.92
2016-06-12T12:43:50.596Z,23.12
2016-06-12T12:44:50.631Z,22.91
2016-06-12T12:45:50.664Z,22.91
2016-06-12T12:46:50.699Z,23.11
2016-06-12T12:47:50.577Z,22.62
2016-06-12T12:48:50.767Z,22.72
2016-06-12T12:49:50.802Z,22.62
2016-06-12T12:50:50.837Z,22.8
2016-06-12T12:51:50.855Z,23.19
2016-06-12T12:52:50.905Z,22.81
2016-06-12T12:53:51.517Z,22.51
2016-06-12T12:54:50.958Z,23.19
2016-06-12T12:55:50.992Z,23.19